sensor_id;sensor_type;location;lat;lon;timestamp;temperature;humidity
15394;DHT22;7795;47.986;11.868;2023-06-22T00:01:09;23.80;61.70
15394;DHT22;7795;47.986;11.868;2023-06-22T00:03:35;23.80;61.90
15394;DHT22;7795;47.986;11.868;2023-06-22T00:06:00;23.80;62.20
15394;DHT22;7795;47.986;11.868;2023-06-22T00:08:26;23.70;62.40
15394;DHT22;7795;47.986;11.868;2023-06-22T00:10:53;23.70;62.50
15394;DHT22;7795;47.986;11.868;2023-06-22T00:13:19;23.60;62.80
15394;DHT22;7795;47.986;11.868;2023-06-22T00:15:45;23.60;62.90
15394;DHT22;7795;47.986;11.868;2023-06-22T00:18:11;23.60;63.10
15394;DHT22;7795;47.986;11.868;2023-06-22T00:20:39;23.60;63.30
15394;DHT22;7795;47.986;11.868;2023-06-22T00:23:05;23.50;63.40
15394;DHT22;7795;47.986;11.868;2023-06-22T00:25:34;23.50;63.90
15394;DHT22;7795;47.986;11.868;2023-06-22T00:28:01;23.50;64.10
15394;DHT22;7795;47.986;11.868;2023-06-22T00:30:27;23.60;64.50
15394;DHT22;7795;47.986;11.868;2023-06-22T00:32:53;23.60;64.30
15394;DHT22;7795;47.986;11.868;2023-06-22T00:35:19;23.60;64.40
15394;DHT22;7795;47.986;11.868;2023-06-22T00:37:44;23.60;64.40
15394;DHT22;7795;47.986;11.868;2023-06-22T00:40:10;23.60;64.60
15394;DHT22;7795;47.986;11.868;2023-06-22T00:42:37;23.60;64.60
15394;DHT22;7795;47.986;11.868;2023-06-22T00:45:06;23.70;64.80
15394;DHT22;7795;47.986;11.868;2023-06-22T00:47:32;23.70;65.00
15394;DHT22;7795;47.986;11.868;2023-06-22T00:49:59;23.70;65.50
15394;DHT22;7795;47.986;11.868;2023-06-22T00:52:26;23.70;64.80
15394;DHT22;7795;47.986;11.868;2023-06-22T00:54:56;23.70;64.80
15394;DHT22;7795;47.986;11.868;2023-06-22T00:57:24;23.70;65.00
15394;DHT22;7795;47.986;11.868;2023-06-22T00:59:54;23.70;65.30
15394;DHT22;7795;47.986;11.868;2023-06-22T01:02:21;23.60;65.10
15394;DHT22;7795;47.986;11.868;2023-06-22T01:04:47;23.70;65.30
15394;DHT22;7795;47.986;11.868;2023-06-22T01:07:20;23.70;65.30
15394;DHT22;7795;47.986;11.868;2023-06-22T01:09:53;23.60;65.70
15394;DHT22;7795;47.986;11.868;2023-06-22T01:12:23;23.60;65.60
15394;DHT22;7795;47.986;11.868;2023-06-22T01:14:53;23.60;65.40
15394;DHT22;7795;47.986;11.868;2023-06-22T01:17:23;23.60;65.60
15394;DHT22;7795;47.986;11.868;2023-06-22T01:19:52;23.50;65.60
15394;DHT22;7795;47.986;11.868;2023-06-22T01:22:25;23.50;65.50
15394;DHT22;7795;47.986;11.868;2023-06-22T01:25:07;23.50;65.60
15394;DHT22;7795;47.986;11.868;2023-06-22T01:27:40;23.50;65.80
15394;DHT22;7795;47.986;11.868;2023-06-22T01:30:13;23.50;65.70
15394;DHT22;7795;47.986;11.868;2023-06-22T01:32:41;23.40;65.60
15394;DHT22;7795;47.986;11.868;2023-06-22T01:35:09;23.40;65.60
15394;DHT22;7795;47.986;11.868;2023-06-22T01:37:36;23.40;65.70
15394;DHT22;7795;47.986;11.868;2023-06-22T01:40:04;23.30;65.80
15394;DHT22;7795;47.986;11.868;2023-06-22T01:42:31;23.30;65.80
15394;DHT22;7795;47.986;11.868;2023-06-22T01:44:58;23.30;65.80
15394;DHT22;7795;47.986;11.868;2023-06-22T01:47:26;23.20;65.90
15394;DHT22;7795;47.986;11.868;2023-06-22T01:49:53;23.20;66.20
15394;DHT22;7795;47.986;11.868;2023-06-22T01:52:19;23.20;66.30
15394;DHT22;7795;47.986;11.868;2023-06-22T01:54:46;23.10;66.20
15394;DHT22;7795;47.986;11.868;2023-06-22T01:57:12;23.10;66.40
15394;DHT22;7795;47.986;11.868;2023-06-22T01:59:44;23.00;66.50
15394;DHT22;7795;47.986;11.868;2023-06-22T02:02:16;23.00;67.10
15394;DHT22;7795;47.986;11.868;2023-06-22T02:04:47;23.00;67.00
15394;DHT22;7795;47.986;11.868;2023-06-22T02:07:15;23.00;67.20
15394;DHT22;7795;47.986;11.868;2023-06-22T02:09:45;22.90;67.10
15394;DHT22;7795;47.986;11.868;2023-06-22T02:12:12;22.90;67.40
15394;DHT22;7795;47.986;11.868;2023-06-22T02:14:39;22.90;67.30
15394;DHT22;7795;47.986;11.868;2023-06-22T02:17:05;22.90;67.40
15394;DHT22;7795;47.986;11.868;2023-06-22T02:19:36;22.90;67.40
15394;DHT22;7795;47.986;11.868;2023-06-22T02:22:03;22.80;67.40
15394;DHT22;7795;47.986;11.868;2023-06-22T02:24:29;22.80;67.50
15394;DHT22;7795;47.986;11.868;2023-06-22T02:26:57;22.80;67.50
15394;DHT22;7795;47.986;11.868;2023-06-22T02:29:23;22.80;67.50
15394;DHT22;7795;47.986;11.868;2023-06-22T02:31:49;22.80;67.60
15394;DHT22;7795;47.986;11.868;2023-06-22T02:34:14;22.80;67.50
15394;DHT22;7795;47.986;11.868;2023-06-22T02:36:44;22.80;67.50
15394;DHT22;7795;47.986;11.868;2023-06-22T02:39:18;22.80;68.40
15394;DHT22;7795;47.986;11.868;2023-06-22T02:41:44;22.80;67.60
15394;DHT22;7795;47.986;11.868;2023-06-22T02:44:10;22.80;67.50
15394;DHT22;7795;47.986;11.868;2023-06-22T02:46:35;22.70;67.50
15394;DHT22;7795;47.986;11.868;2023-06-22T02:49:01;22.70;67.60
15394;DHT22;7795;47.986;11.868;2023-06-22T02:51:27;22.70;67.70
15394;DHT22;7795;47.986;11.868;2023-06-22T02:53:53;22.70;67.70
15394;DHT22;7795;47.986;11.868;2023-06-22T02:56:24;22.70;67.70
15394;DHT22;7795;47.986;11.868;2023-06-22T02:58:50;22.70;67.80
15394;DHT22;7795;47.986;11.868;2023-06-22T03:01:16;22.70;67.70
15394;DHT22;7795;47.986;11.868;2023-06-22T03:03:42;22.60;67.60
15394;DHT22;7795;47.986;11.868;2023-06-22T03:06:07;22.60;67.60
15394;DHT22;7795;47.986;11.868;2023-06-22T03:08:33;22.60;67.60
15394;DHT22;7795;47.986;11.868;2023-06-22T03:10:59;22.60;67.70
15394;DHT22;7795;47.986;11.868;2023-06-22T03:13:27;22.60;67.80
15394;DHT22;7795;47.986;11.868;2023-06-22T03:15:53;22.50;67.90
15394;DHT22;7795;47.986;11.868;2023-06-22T03:18:19;22.50;67.80
15394;DHT22;7795;47.986;11.868;2023-06-22T03:20:47;22.50;67.90
15394;DHT22;7795;47.986;11.868;2023-06-22T03:23:13;22.50;68.10
15394;DHT22;7795;47.986;11.868;2023-06-22T03:25:40;22.40;68.00
15394;DHT22;7795;47.986;11.868;2023-06-22T03:28:06;22.40;68.10
15394;DHT22;7795;47.986;11.868;2023-06-22T03:30:33;22.40;68.10
15394;DHT22;7795;47.986;11.868;2023-06-22T03:32:59;22.40;68.20
15394;DHT22;7795;47.986;11.868;2023-06-22T03:35:24;22.30;68.20
15394;DHT22;7795;47.986;11.868;2023-06-22T03:37:50;22.30;68.40
15394;DHT22;7795;47.986;11.868;2023-06-22T03:40:16;22.30;68.50
15394;DHT22;7795;47.986;11.868;2023-06-22T03:42:41;22.30;68.70
15394;DHT22;7795;47.986;11.868;2023-06-22T03:45:08;22.20;68.70
15394;DHT22;7795;47.986;11.868;2023-06-22T03:47:35;22.20;68.80
15394;DHT22;7795;47.986;11.868;2023-06-22T03:50:01;22.20;69.10
15394;DHT22;7795;47.986;11.868;2023-06-22T03:52:28;22.10;69.00
15394;DHT22;7795;47.986;11.868;2023-06-22T03:54:54;22.10;69.20
15394;DHT22;7795;47.986;11.868;2023-06-22T03:57:20;22.10;69.20
15394;DHT22;7795;47.986;11.868;2023-06-22T03:59:46;22.00;69.40
15394;DHT22;7795;47.986;11.868;2023-06-22T04:02:12;22.00;69.50
15394;DHT22;7795;47.986;11.868;2023-06-22T04:04:39;22.10;69.80
15394;DHT22;7795;47.986;11.868;2023-06-22T04:07:05;22.10;69.80
15394;DHT22;7795;47.986;11.868;2023-06-22T04:09:31;22.00;69.80
15394;DHT22;7795;47.986;11.868;2023-06-22T04:11:56;22.00;70.00
15394;DHT22;7795;47.986;11.868;2023-06-22T04:14:22;22.10;70.10
15394;DHT22;7795;47.986;11.868;2023-06-22T04:16:48;22.00;70.10
15394;DHT22;7795;47.986;11.868;2023-06-22T04:19:13;22.10;70.20
15394;DHT22;7795;47.986;11.868;2023-06-22T04:21:43;22.10;70.30
15394;DHT22;7795;47.986;11.868;2023-06-22T04:24:10;22.10;70.50
15394;DHT22;7795;47.986;11.868;2023-06-22T04:26:35;22.10;70.50
15394;DHT22;7795;47.986;11.868;2023-06-22T04:29:02;22.20;70.60
15394;DHT22;7795;47.986;11.868;2023-06-22T04:31:31;22.20;70.50
15394;DHT22;7795;47.986;11.868;2023-06-22T04:33:57;22.20;70.70
15394;DHT22;7795;47.986;11.868;2023-06-22T04:36:31;22.20;70.80
15394;DHT22;7795;47.986;11.868;2023-06-22T04:39:05;22.30;70.90
15394;DHT22;7795;47.986;11.868;2023-06-22T04:41:31;22.40;71.00
15394;DHT22;7795;47.986;11.868;2023-06-22T04:44:07;22.40;70.90
15394;DHT22;7795;47.986;11.868;2023-06-22T04:46:33;22.50;70.90
15394;DHT22;7795;47.986;11.868;2023-06-22T04:49:04;22.60;71.00
15394;DHT22;7795;47.986;11.868;2023-06-22T04:51:32;22.60;70.90
15394;DHT22;7795;47.986;11.868;2023-06-22T04:53:58;22.70;70.90
15394;DHT22;7795;47.986;11.868;2023-06-22T04:56:27;22.80;70.90
15394;DHT22;7795;47.986;11.868;2023-06-22T04:58:56;22.90;71.00
15394;DHT22;7795;47.986;11.868;2023-06-22T05:01:22;23.00;70.90
15394;DHT22;7795;47.986;11.868;2023-06-22T05:03:48;23.20;71.70
15394;DHT22;7795;47.986;11.868;2023-06-22T05:06:14;23.30;70.90
15394;DHT22;7795;47.986;11.868;2023-06-22T05:08:40;23.50;70.90
15394;DHT22;7795;47.986;11.868;2023-06-22T05:11:05;23.70;70.90
15394;DHT22;7795;47.986;11.868;2023-06-22T05:13:33;23.80;70.70
15394;DHT22;7795;47.986;11.868;2023-06-22T05:15:59;24.00;70.60
15394;DHT22;7795;47.986;11.868;2023-06-22T05:18:27;24.20;70.40
15394;DHT22;7795;47.986;11.868;2023-06-22T05:20:53;24.30;70.10
15394;DHT22;7795;47.986;11.868;2023-06-22T05:23:19;24.50;69.90
15394;DHT22;7795;47.986;11.868;2023-06-22T05:25:45;24.70;69.70
15394;DHT22;7795;47.986;11.868;2023-06-22T05:28:10;24.80;69.30
15394;DHT22;7795;47.986;11.868;2023-06-22T05:30:38;25.00;69.00
15394;DHT22;7795;47.986;11.868;2023-06-22T05:33:04;25.20;68.80
15394;DHT22;7795;47.986;11.868;2023-06-22T05:35:30;25.30;68.50
15394;DHT22;7795;47.986;11.868;2023-06-22T05:37:55;25.40;68.30
15394;DHT22;7795;47.986;11.868;2023-06-22T05:40:21;25.60;68.10
15394;DHT22;7795;47.986;11.868;2023-06-22T05:42:47;25.70;67.80
15394;DHT22;7795;47.986;11.868;2023-06-22T05:45:13;25.90;67.60
15394;DHT22;7795;47.986;11.868;2023-06-22T05:47:40;26.00;67.40
15394;DHT22;7795;47.986;11.868;2023-06-22T05:50:07;26.20;67.10
15394;DHT22;7795;47.986;11.868;2023-06-22T05:52:34;26.40;66.80
15394;DHT22;7795;47.986;11.868;2023-06-22T05:55:00;26.50;66.50
15394;DHT22;7795;47.986;11.868;2023-06-22T05:57:25;26.70;66.20
15394;DHT22;7795;47.986;11.868;2023-06-22T05:59:51;26.80;65.80
15394;DHT22;7795;47.986;11.868;2023-06-22T06:02:19;27.00;65.60
15394;DHT22;7795;47.986;11.868;2023-06-22T06:04:46;27.10;65.30
15394;DHT22;7795;47.986;11.868;2023-06-22T06:07:12;27.30;64.90
15394;DHT22;7795;47.986;11.868;2023-06-22T06:09:37;27.40;64.60
15394;DHT22;7795;47.986;11.868;2023-06-22T06:12:04;27.50;64.40
15394;DHT22;7795;47.986;11.868;2023-06-22T06:14:30;27.60;64.10
15394;DHT22;7795;47.986;11.868;2023-06-22T06:16:55;27.70;63.70
15394;DHT22;7795;47.986;11.868;2023-06-22T06:19:21;27.80;63.40
15394;DHT22;7795;47.986;11.868;2023-06-22T06:21:48;27.90;63.40
15394;DHT22;7795;47.986;11.868;2023-06-22T06:24:15;28.00;62.90
15394;DHT22;7795;47.986;11.868;2023-06-22T06:26:40;28.00;62.70
15394;DHT22;7795;47.986;11.868;2023-06-22T06:29:06;28.10;62.70
15394;DHT22;7795;47.986;11.868;2023-06-22T06:31:32;28.10;62.50
15394;DHT22;7795;47.986;11.868;2023-06-22T06:33:58;28.20;62.50
15394;DHT22;7795;47.986;11.868;2023-06-22T06:36:24;28.30;62.30
15394;DHT22;7795;47.986;11.868;2023-06-22T06:38:52;28.30;62.20
15394;DHT22;7795;47.986;11.868;2023-06-22T06:41:18;28.40;61.90
15394;DHT22;7795;47.986;11.868;2023-06-22T06:43:44;28.40;61.80
15394;DHT22;7795;47.986;11.868;2023-06-22T06:46:10;28.50;61.80
15394;DHT22;7795;47.986;11.868;2023-06-22T06:48:36;28.50;61.70
15394;DHT22;7795;47.986;11.868;2023-06-22T06:51:02;28.50;61.60
15394;DHT22;7795;47.986;11.868;2023-06-22T06:53:28;28.50;61.60
15394;DHT22;7795;47.986;11.868;2023-06-22T06:55:55;28.60;61.60
15394;DHT22;7795;47.986;11.868;2023-06-22T06:58:21;28.60;61.50
15394;DHT22;7795;47.986;11.868;2023-06-22T07:00:48;28.60;61.50
15394;DHT22;7795;47.986;11.868;2023-06-22T07:03:14;28.70;61.50
15394;DHT22;7795;47.986;11.868;2023-06-22T07:05:40;28.70;61.50
15394;DHT22;7795;47.986;11.868;2023-06-22T07:08:06;28.80;61.30
15394;DHT22;7795;47.986;11.868;2023-06-22T07:10:31;28.80;62.00
15394;DHT22;7795;47.986;11.868;2023-06-22T07:12:58;28.80;61.10
15394;DHT22;7795;47.986;11.868;2023-06-22T07:15:24;28.90;60.80
15394;DHT22;7795;47.986;11.868;2023-06-22T07:17:50;28.90;60.60
15394;DHT22;7795;47.986;11.868;2023-06-22T07:20:16;28.90;60.60
15394;DHT22;7795;47.986;11.868;2023-06-22T07:22:43;28.90;60.50
15394;DHT22;7795;47.986;11.868;2023-06-22T07:25:10;28.90;60.30
15394;DHT22;7795;47.986;11.868;2023-06-22T07:27:45;28.90;60.10
15394;DHT22;7795;47.986;11.868;2023-06-22T07:30:13;28.90;60.00
15394;DHT22;7795;47.986;11.868;2023-06-22T07:32:39;28.90;60.00
15394;DHT22;7795;47.986;11.868;2023-06-22T07:35:06;28.80;60.00
15394;DHT22;7795;47.986;11.868;2023-06-22T07:37:32;28.80;60.10
15394;DHT22;7795;47.986;11.868;2023-06-22T07:39:59;28.80;60.30
15394;DHT22;7795;47.986;11.868;2023-06-22T07:42:25;28.80;60.20
15394;DHT22;7795;47.986;11.868;2023-06-22T07:44:51;28.90;60.20
15394;DHT22;7795;47.986;11.868;2023-06-22T07:47:18;28.90;60.90
15394;DHT22;7795;47.986;11.868;2023-06-22T07:49:44;28.90;60.20
15394;DHT22;7795;47.986;11.868;2023-06-22T07:52:10;28.90;60.20
15394;DHT22;7795;47.986;11.868;2023-06-22T07:54:36;29.00;60.40
15394;DHT22;7795;47.986;11.868;2023-06-22T07:57:02;29.00;60.20
15394;DHT22;7795;47.986;11.868;2023-06-22T07:59:28;29.10;60.20
15394;DHT22;7795;47.986;11.868;2023-06-22T08:01:55;29.10;59.90
15394;DHT22;7795;47.986;11.868;2023-06-22T08:04:22;29.10;59.70
15394;DHT22;7795;47.986;11.868;2023-06-22T08:06:48;29.20;59.70
15394;DHT22;7795;47.986;11.868;2023-06-22T08:09:14;29.20;59.60
15394;DHT22;7795;47.986;11.868;2023-06-22T08:11:40;29.20;60.50
15394;DHT22;7795;47.986;11.868;2023-06-22T08:14:06;29.20;59.60
15394;DHT22;7795;47.986;11.868;2023-06-22T08:16:31;29.20;59.60
15394;DHT22;7795;47.986;11.868;2023-06-22T08:18:57;29.20;59.50
15394;DHT22;7795;47.986;11.868;2023-06-22T08:21:24;29.20;59.40
15394;DHT22;7795;47.986;11.868;2023-06-22T08:23:50;29.30;59.30
15394;DHT22;7795;47.986;11.868;2023-06-22T08:26:16;29.30;59.40
15394;DHT22;7795;47.986;11.868;2023-06-22T08:28:42;29.30;59.30
15394;DHT22;7795;47.986;11.868;2023-06-22T08:31:07;29.40;59.30
15394;DHT22;7795;47.986;11.868;2023-06-22T08:33:34;29.40;59.20
15394;DHT22;7795;47.986;11.868;2023-06-22T08:35:59;29.40;59.30
15394;DHT22;7795;47.986;11.868;2023-06-22T08:38:27;29.40;59.40
15394;DHT22;7795;47.986;11.868;2023-06-22T08:40:53;29.50;59.40
15394;DHT22;7795;47.986;11.868;2023-06-22T08:43:18;29.50;59.30
15394;DHT22;7795;47.986;11.868;2023-06-22T08:45:44;29.60;59.10
15394;DHT22;7795;47.986;11.868;2023-06-22T08:48:10;29.70;58.90
15394;DHT22;7795;47.986;11.868;2023-06-22T08:50:36;29.70;58.80
15394;DHT22;7795;47.986;11.868;2023-06-22T08:53:02;29.80;58.80
15394;DHT22;7795;47.986;11.868;2023-06-22T08:55:29;29.80;58.70
15394;DHT22;7795;47.986;11.868;2023-06-22T08:57:54;29.90;58.60
15394;DHT22;7795;47.986;11.868;2023-06-22T09:00:20;30.00;58.60
15394;DHT22;7795;47.986;11.868;2023-06-22T09:02:47;30.00;58.60
15394;DHT22;7795;47.986;11.868;2023-06-22T09:05:13;30.10;58.50
15394;DHT22;7795;47.986;11.868;2023-06-22T09:07:39;30.20;58.30
15394;DHT22;7795;47.986;11.868;2023-06-22T09:10:05;30.30;58.30
15394;DHT22;7795;47.986;11.868;2023-06-22T09:12:33;30.40;58.00
15394;DHT22;7795;47.986;11.868;2023-06-22T09:14:59;30.50;57.60
15394;DHT22;7795;47.986;11.868;2023-06-22T09:17:29;30.60;57.50
15394;DHT22;7795;47.986;11.868;2023-06-22T09:19:54;30.70;57.40
15394;DHT22;7795;47.986;11.868;2023-06-22T09:22:20;30.80;57.40
15394;DHT22;7795;47.986;11.868;2023-06-22T09:24:46;30.90;57.20
15394;DHT22;7795;47.986;11.868;2023-06-22T09:27:12;31.00;56.90
15394;DHT22;7795;47.986;11.868;2023-06-22T09:29:39;31.10;56.80
15394;DHT22;7795;47.986;11.868;2023-06-22T09:32:06;31.20;56.70
15394;DHT22;7795;47.986;11.868;2023-06-22T09:34:32;31.20;56.60
15394;DHT22;7795;47.986;11.868;2023-06-22T09:36:57;31.30;56.50
15394;DHT22;7795;47.986;11.868;2023-06-22T09:39:26;31.40;56.30
15394;DHT22;7795;47.986;11.868;2023-06-22T09:41:51;31.40;56.20
15394;DHT22;7795;47.986;11.868;2023-06-22T09:44:17;31.60;55.90
15394;DHT22;7795;47.986;11.868;2023-06-22T09:46:44;31.60;55.60
15394;DHT22;7795;47.986;11.868;2023-06-22T09:49:10;31.70;55.20
15394;DHT22;7795;47.986;11.868;2023-06-22T09:51:36;31.80;55.10
15394;DHT22;7795;47.986;11.868;2023-06-22T09:54:01;31.80;55.00
15394;DHT22;7795;47.986;11.868;2023-06-22T09:56:27;31.90;55.10
15394;DHT22;7795;47.986;11.868;2023-06-22T09:58:54;31.90;55.10
15394;DHT22;7795;47.986;11.868;2023-06-22T10:01:20;32.00;55.00
15394;DHT22;7795;47.986;11.868;2023-06-22T10:03:48;32.10;54.70
15394;DHT22;7795;47.986;11.868;2023-06-22T10:06:14;32.20;54.50
15394;DHT22;7795;47.986;11.868;2023-06-22T10:08:40;32.20;54.60
15394;DHT22;7795;47.986;11.868;2023-06-22T10:11:06;32.30;54.40
15394;DHT22;7795;47.986;11.868;2023-06-22T10:13:32;32.30;54.20
15394;DHT22;7795;47.986;11.868;2023-06-22T10:15:58;32.40;53.80
15394;DHT22;7795;47.986;11.868;2023-06-22T10:18:23;32.50;53.80
15394;DHT22;7795;47.986;11.868;2023-06-22T10:20:51;32.50;53.70
15394;DHT22;7795;47.986;11.868;2023-06-22T10:23:17;32.50;53.60
15394;DHT22;7795;47.986;11.868;2023-06-22T10:25:43;32.60;53.60
15394;DHT22;7795;47.986;11.868;2023-06-22T10:28:09;32.70;53.40
15394;DHT22;7795;47.986;11.868;2023-06-22T10:30:35;32.70;53.20
15394;DHT22;7795;47.986;11.868;2023-06-22T10:33:01;32.80;53.00
15394;DHT22;7795;47.986;11.868;2023-06-22T10:35:26;32.80;52.70
15394;DHT22;7795;47.986;11.868;2023-06-22T10:37:55;32.80;52.80
15394;DHT22;7795;47.986;11.868;2023-06-22T10:40:21;32.90;52.70
15394;DHT22;7795;47.986;11.868;2023-06-22T10:42:47;32.90;52.80
15394;DHT22;7795;47.986;11.868;2023-06-22T10:45:13;33.00;53.40
15394;DHT22;7795;47.986;11.868;2023-06-22T10:47:39;33.00;52.20
15394;DHT22;7795;47.986;11.868;2023-06-22T10:50:08;33.10;52.20
15394;DHT22;7795;47.986;11.868;2023-06-22T10:52:33;33.10;52.30
15394;DHT22;7795;47.986;11.868;2023-06-22T10:55:01;33.20;52.10
15394;DHT22;7795;47.986;11.868;2023-06-22T10:57:26;33.20;51.90
15394;DHT22;7795;47.986;11.868;2023-06-22T10:59:52;33.30;52.60
15394;DHT22;7795;47.986;11.868;2023-06-22T11:02:18;33.30;52.10
15394;DHT22;7795;47.986;11.868;2023-06-22T11:04:44;33.30;52.00
15394;DHT22;7795;47.986;11.868;2023-06-22T11:07:09;33.40;51.80
15394;DHT22;7795;47.986;11.868;2023-06-22T11:09:35;33.50;51.80
15394;DHT22;7795;47.986;11.868;2023-06-22T11:12:03;33.50;51.60
15394;DHT22;7795;47.986;11.868;2023-06-22T11:14:29;33.60;50.90
15394;DHT22;7795;47.986;11.868;2023-06-22T11:16:55;33.60;51.00
15394;DHT22;7795;47.986;11.868;2023-06-22T11:19:21;33.70;50.80
15394;DHT22;7795;47.986;11.868;2023-06-22T11:21:47;33.80;50.70
15394;DHT22;7795;47.986;11.868;2023-06-22T11:24:13;33.80;50.40
15394;DHT22;7795;47.986;11.868;2023-06-22T11:26:39;33.80;50.60
15394;DHT22;7795;47.986;11.868;2023-06-22T11:29:06;33.90;50.40
15394;DHT22;7795;47.986;11.868;2023-06-22T11:31:32;34.00;49.90
15394;DHT22;7795;47.986;11.868;2023-06-22T11:33:58;34.10;50.00
15394;DHT22;7795;47.986;11.868;2023-06-22T11:36:23;34.10;49.90
15394;DHT22;7795;47.986;11.868;2023-06-22T11:38:50;34.20;50.00
15394;DHT22;7795;47.986;11.868;2023-06-22T11:41:17;34.30;49.40
15394;DHT22;7795;47.986;11.868;2023-06-22T11:43:43;34.30;49.20
15394;DHT22;7795;47.986;11.868;2023-06-22T11:46:10;34.40;49.10
15394;DHT22;7795;47.986;11.868;2023-06-22T11:48:36;34.50;49.30
15394;DHT22;7795;47.986;11.868;2023-06-22T11:51:02;34.60;49.10
15394;DHT22;7795;47.986;11.868;2023-06-22T11:53:28;34.60;48.70
15394;DHT22;7795;47.986;11.868;2023-06-22T11:55:54;34.70;48.70
15394;DHT22;7795;47.986;11.868;2023-06-22T11:58:20;34.80;48.70
15394;DHT22;7795;47.986;11.868;2023-06-22T12:00:47;34.80;48.50
15394;DHT22;7795;47.986;11.868;2023-06-22T12:03:14;34.90;48.30
15394;DHT22;7795;47.986;11.868;2023-06-22T12:05:40;35.00;48.10
15394;DHT22;7795;47.986;11.868;2023-06-22T12:08:06;35.00;48.10
15394;DHT22;7795;47.986;11.868;2023-06-22T12:10:32;35.10;47.90
15394;DHT22;7795;47.986;11.868;2023-06-22T12:12:58;35.20;47.90
15394;DHT22;7795;47.986;11.868;2023-06-22T12:15:25;35.30;47.80
15394;DHT22;7795;47.986;11.868;2023-06-22T12:17:51;35.30;47.60
15394;DHT22;7795;47.986;11.868;2023-06-22T12:20:18;35.40;47.40
15394;DHT22;7795;47.986;11.868;2023-06-22T12:22:44;35.50;47.00
15394;DHT22;7795;47.986;11.868;2023-06-22T12:25:11;35.50;46.80
15394;DHT22;7795;47.986;11.868;2023-06-22T12:27:37;35.60;47.00
15394;DHT22;7795;47.986;11.868;2023-06-22T12:30:04;35.60;47.00
15394;DHT22;7795;47.986;11.868;2023-06-22T12:32:30;35.60;46.80
15394;DHT22;7795;47.986;11.868;2023-06-22T12:34:56;35.70;46.60
15394;DHT22;7795;47.986;11.868;2023-06-22T12:37:23;35.70;46.20
15394;DHT22;7795;47.986;11.868;2023-06-22T12:39:49;35.80;46.10
15394;DHT22;7795;47.986;11.868;2023-06-22T12:42:15;35.80;46.20
15394;DHT22;7795;47.986;11.868;2023-06-22T12:44:41;35.80;46.20
15394;DHT22;7795;47.986;11.868;2023-06-22T12:47:08;35.90;46.20
15394;DHT22;7795;47.986;11.868;2023-06-22T12:49:34;35.90;46.10
15394;DHT22;7795;47.986;11.868;2023-06-22T12:51:59;36.00;46.20
15394;DHT22;7795;47.986;11.868;2023-06-22T12:54:27;36.00;45.90
15394;DHT22;7795;47.986;11.868;2023-06-22T12:56:54;36.10;45.60
15394;DHT22;7795;47.986;11.868;2023-06-22T12:59:19;36.10;45.80
15394;DHT22;7795;47.986;11.868;2023-06-22T13:01:45;36.10;45.60
15394;DHT22;7795;47.986;11.868;2023-06-22T13:04:11;36.20;45.40
15394;DHT22;7795;47.986;11.868;2023-06-22T13:06:40;36.20;45.20
15394;DHT22;7795;47.986;11.868;2023-06-22T13:09:05;36.20;45.10
15394;DHT22;7795;47.986;11.868;2023-06-22T13:11:33;36.20;45.30
15394;DHT22;7795;47.986;11.868;2023-06-22T13:13:58;36.20;45.10
15394;DHT22;7795;47.986;11.868;2023-06-22T13:16:24;36.20;44.90
15394;DHT22;7795;47.986;11.868;2023-06-22T13:18:50;36.30;44.90
15394;DHT22;7795;47.986;11.868;2023-06-22T13:21:15;36.30;44.80
15394;DHT22;7795;47.986;11.868;2023-06-22T13:23:41;36.30;44.40
15394;DHT22;7795;47.986;11.868;2023-06-22T13:26:07;36.40;43.90
15394;DHT22;7795;47.986;11.868;2023-06-22T13:28:34;36.50;43.80
15394;DHT22;7795;47.986;11.868;2023-06-22T13:31:00;36.50;43.80
15394;DHT22;7795;47.986;11.868;2023-06-22T13:33:26;36.50;43.70
15394;DHT22;7795;47.986;11.868;2023-06-22T13:35:52;36.50;43.70
15394;DHT22;7795;47.986;11.868;2023-06-22T13:38:17;36.50;43.60
15394;DHT22;7795;47.986;11.868;2023-06-22T13:40:43;36.60;43.80
15394;DHT22;7795;47.986;11.868;2023-06-22T13:43:09;36.60;43.80
15394;DHT22;7795;47.986;11.868;2023-06-22T13:45:36;36.70;43.60
15394;DHT22;7795;47.986;11.868;2023-06-22T13:48:02;36.70;43.00
15394;DHT22;7795;47.986;11.868;2023-06-22T13:50:28;36.80;43.10
15394;DHT22;7795;47.986;11.868;2023-06-22T13:52:55;36.80;42.80
15394;DHT22;7795;47.986;11.868;2023-06-22T13:55:22;36.80;43.10
15394;DHT22;7795;47.986;11.868;2023-06-22T13:57:49;36.80;42.70
15394;DHT22;7795;47.986;11.868;2023-06-22T14:00:15;36.90;42.70
15394;DHT22;7795;47.986;11.868;2023-06-22T14:02:42;36.90;42.40
15394;DHT22;7795;47.986;11.868;2023-06-22T14:05:09;36.90;42.70
15394;DHT22;7795;47.986;11.868;2023-06-22T14:07:34;37.00;42.40
15394;DHT22;7795;47.986;11.868;2023-06-22T14:10:00;37.00;43.10
15394;DHT22;7795;47.986;11.868;2023-06-22T14:12:26;37.10;41.90
15394;DHT22;7795;47.986;11.868;2023-06-22T14:14:52;37.10;41.80
15394;DHT22;7795;47.986;11.868;2023-06-22T14:17:18;37.10;41.70
15394;DHT22;7795;47.986;11.868;2023-06-22T14:19:50;37.10;41.80
15394;DHT22;7795;47.986;11.868;2023-06-22T14:22:18;37.20;41.50
15394;DHT22;7795;47.986;11.868;2023-06-22T14:24:44;37.20;41.80
15394;DHT22;7795;47.986;11.868;2023-06-22T14:27:09;37.20;41.80
15394;DHT22;7795;47.986;11.868;2023-06-22T14:29:35;37.20;41.60
15394;DHT22;7795;47.986;11.868;2023-06-22T14:32:01;37.30;41.80
15394;DHT22;7795;47.986;11.868;2023-06-22T14:34:27;37.30;41.40
15394;DHT22;7795;47.986;11.868;2023-06-22T14:36:54;37.30;41.30
15394;DHT22;7795;47.986;11.868;2023-06-22T14:39:20;37.30;41.40
15394;DHT22;7795;47.986;11.868;2023-06-22T14:41:46;37.30;41.30
15394;DHT22;7795;47.986;11.868;2023-06-22T14:44:12;37.30;41.40
15394;DHT22;7795;47.986;11.868;2023-06-22T14:46:38;37.20;41.60
15394;DHT22;7795;47.986;11.868;2023-06-22T14:49:03;37.30;41.30
15394;DHT22;7795;47.986;11.868;2023-06-22T14:51:29;37.20;41.40
15394;DHT22;7795;47.986;11.868;2023-06-22T14:53:56;37.30;41.50
15394;DHT22;7795;47.986;11.868;2023-06-22T14:56:22;37.30;41.80
15394;DHT22;7795;47.986;11.868;2023-06-22T14:58:48;37.30;41.60
15394;DHT22;7795;47.986;11.868;2023-06-22T15:01:16;37.30;41.00
15394;DHT22;7795;47.986;11.868;2023-06-22T15:03:41;37.30;40.80
15394;DHT22;7795;47.986;11.868;2023-06-22T15:06:08;37.20;40.90
15394;DHT22;7795;47.986;11.868;2023-06-22T15:08:34;37.20;41.00
15394;DHT22;7795;47.986;11.868;2023-06-22T15:11:01;37.20;40.90
15394;DHT22;7795;47.986;11.868;2023-06-22T15:13:27;37.20;41.30
15394;DHT22;7795;47.986;11.868;2023-06-22T15:15:54;37.20;41.40
15394;DHT22;7795;47.986;11.868;2023-06-22T15:18:20;37.20;41.20
15394;DHT22;7795;47.986;11.868;2023-06-22T15:20:46;37.20;41.10
15394;DHT22;7795;47.986;11.868;2023-06-22T15:23:13;37.20;41.50
15394;DHT22;7795;47.986;11.868;2023-06-22T15:25:39;37.20;41.60